sensor_id;sensor_type;location;lat;lon;timestamp;pressure;altitude;pressure_sealevel;temperature;humidity
6524;BME280;3295;38.928;-77.052;2023-03-01T00:01:17;100591.22;;;16.19;51.23
6524;BME280;3295;38.928;-77.052;2023-03-01T00:03:45;100599.63;;;16.12;51.45
6524;BME280;3295;38.928;-77.052;2023-03-01T00:06:14;100600.69;;;16.20;51.70
6524;BME280;3295;38.928;-77.052;2023-03-01T00:08:42;100607.56;;;16.21;51.51
6524;BME280;3295;38.928;-77.052;2023-03-01T00:11:12;100609.19;;;16.18;51.48
6524;BME280;3295;38.928;-77.052;2023-03-01T00:13:41;100615.91;;;16.13;51.52
6524;BME280;3295;38.928;-77.052;2023-03-01T00:16:11;100628.78;;;16.11;51.70
6524;BME280;3295;38.928;-77.052;2023-03-01T00:18:39;100629.56;;;16.09;51.70
6524;BME280;3295;38.928;-77.052;2023-03-01T00:21:09;100637.38;;;16.13;52.59
6524;BME280;3295;38.928;-77.052;2023-03-01T00:23:39;100639.06;;;16.11;52.37
6524;BME280;3295;38.928;-77.052;2023-03-01T00:26:09;100651.44;;;15.91;53.18
6524;BME280;3295;38.928;-77.052;2023-03-01T00:28:37;100651.50;;;15.94;52.65
6524;BME280;3295;38.928;-77.052;2023-03-01T00:31:06;100659.28;;;15.96;52.58
6524;BME280;3295;38.928;-77.052;2023-03-01T00:33:35;100658.28;;;15.91;52.88
6524;BME280;3295;38.928;-77.052;2023-03-01T00:36:04;100668.34;;;15.82;53.13
6524;BME280;3295;38.928;-77.052;2023-03-01T00:38:35;100668.44;;;15.86;53.19
6524;BME280;3295;38.928;-77.052;2023-03-01T00:41:09;100673.34;;;15.77;53.28
6524;BME280;3295;38.928;-77.052;2023-03-01T00:43:38;100680.00;;;15.69;52.51
6524;BME280;3295;38.928;-77.052;2023-03-01T00:46:08;100690.34;;;15.71;52.97
6524;BME280;3295;38.928;-77.052;2023-03-01T00:48:36;100703.03;;;15.64;53.92
6524;BME280;3295;38.928;-77.052;2023-03-01T00:51:06;100714.09;;;15.62;53.64
6524;BME280;3295;38.928;-77.052;2023-03-01T00:53:34;100727.66;;;15.56;53.62
6524;BME280;3295;38.928;-77.052;2023-03-01T00:56:03;100733.31;;;15.46;53.90
6524;BME280;3295;38.928;-77.052;2023-03-01T00:58:33;100742.72;;;15.44;54.22
6524;BME280;3295;38.928;-77.052;2023-03-01T01:01:07;100762.41;;;15.45;54.59
6524;BME280;3295;38.928;-77.052;2023-03-01T01:03:44;100767.31;;;15.36;54.44
6524;BME280;3295;38.928;-77.052;2023-03-01T01:06:16;100777.34;;;15.27;54.65
6524;BME280;3295;38.928;-77.052;2023-03-01T01:08:44;100781.41;;;15.20;53.92
6524;BME280;3295;38.928;-77.052;2023-03-01T01:11:13;100792.28;;;15.12;54.34
6524;BME280;3295;38.928;-77.052;2023-03-01T01:13:44;100800.66;;;15.06;54.65
6524;BME280;3295;38.928;-77.052;2023-03-01T01:16:13;100802.19;;;15.00;55.07
6524;BME280;3295;38.928;-77.052;2023-03-01T01:18:41;100806.03;;;14.85;55.85
6524;BME280;3295;38.928;-77.052;2023-03-01T01:21:11;100808.94;;;14.69;56.12
6524;BME280;3295;38.928;-77.052;2023-03-01T01:23:40;100809.63;;;14.65;55.54
6524;BME280;3295;38.928;-77.052;2023-03-01T01:26:10;100811.00;;;14.54;55.51
6524;BME280;3295;38.928;-77.052;2023-03-01T01:28:39;100814.31;;;14.51;55.33
6524;BME280;3295;38.928;-77.052;2023-03-01T01:31:08;100828.25;;;14.58;55.63
6524;BME280;3295;38.928;-77.052;2023-03-01T01:33:37;100837.16;;;14.69;56.42
6524;BME280;3295;38.928;-77.052;2023-03-01T01:36:08;100843.88;;;14.66;56.68
6524;BME280;3295;38.928;-77.052;2023-03-01T01:38:37;100846.56;;;14.69;56.83
6524;BME280;3295;38.928;-77.052;2023-03-01T01:41:05;100853.16;;;14.61;56.49
6524;BME280;3295;38.928;-77.052;2023-03-01T01:43:36;100863.50;;;14.64;56.34
6524;BME280;3295;38.928;-77.052;2023-03-01T01:46:04;100859.22;;;14.64;55.59
6524;BME280;3295;38.928;-77.052;2023-03-01T01:48:39;100862.00;;;14.70;55.18
6524;BME280;3295;38.928;-77.052;2023-03-01T01:51:15;100865.94;;;14.59;54.96
6524;BME280;3295;38.928;-77.052;2023-03-01T01:53:47;100870.53;;;14.44;55.68
6524;BME280;3295;38.928;-77.052;2023-03-01T01:56:19;100883.03;;;14.35;56.73
6524;BME280;3295;38.928;-77.052;2023-03-01T01:58:48;100883.50;;;14.24;56.74
6524;BME280;3295;38.928;-77.052;2023-03-01T02:01:16;100883.31;;;14.18;57.67
6524;BME280;3295;38.928;-77.052;2023-03-01T02:03:47;100882.88;;;14.06;58.42
6524;BME280;3295;38.928;-77.052;2023-03-01T02:06:24;100880.31;;;14.06;58.82
6524;BME280;3295;38.928;-77.052;2023-03-01T02:08:55;100876.00;;;14.05;57.75
6524;BME280;3295;38.928;-77.052;2023-03-01T02:11:25;100861.13;;;13.97;58.18
6524;BME280;3295;38.928;-77.052;2023-03-01T02:13:59;100865.50;;;13.99;59.09
6524;BME280;3295;38.928;-77.052;2023-03-01T02:16:27;100874.25;;;14.04;59.04
6524;BME280;3295;38.928;-77.052;2023-03-01T02:18:58;100868.88;;;13.98;57.82
6524;BME280;3295;38.928;-77.052;2023-03-01T02:21:37;100878.94;;;13.92;56.73
6524;BME280;3295;38.928;-77.052;2023-03-01T02:24:17;100882.16;;;13.64;61.46
6524;BME280;3295;38.928;-77.052;2023-03-01T02:26:50;100889.34;;;13.50;65.10
6524;BME280;3295;38.928;-77.052;2023-03-01T02:29:21;100901.19;;;13.48;66.60
6524;BME280;3295;38.928;-77.052;2023-03-01T02:31:52;100895.00;;;13.43;66.30
6524;BME280;3295;38.928;-77.052;2023-03-01T02:34:23;100903.66;;;13.45;65.01
6524;BME280;3295;38.928;-77.052;2023-03-01T02:36:56;100911.44;;;13.48;64.29
6524;BME280;3295;38.928;-77.052;2023-03-01T02:39:27;100911.66;;;13.55;62.54
6524;BME280;3295;38.928;-77.052;2023-03-01T02:41:58;100928.78;;;13.56;61.42
6524;BME280;3295;38.928;-77.052;2023-03-01T02:44:28;100931.47;;;13.36;65.33
6524;BME280;3295;38.928;-77.052;2023-03-01T02:47:04;100942.34;;;13.10;67.71
6524;BME280;3295;38.928;-77.052;2023-03-01T02:49:36;100948.31;;;12.90;69.00
6524;BME280;3295;38.928;-77.052;2023-03-01T02:55:09;100966.78;;;13.03;70.69
6524;BME280;3295;38.928;-77.052;2023-03-01T02:57:40;100960.19;;;13.08;70.17
6524;BME280;3295;38.928;-77.052;2023-03-01T03:00:14;100967.13;;;13.11;73.59
6524;BME280;3295;38.928;-77.052;2023-03-01T03:02:45;100961.47;;;13.18;70.55
6524;BME280;3295;38.928;-77.052;2023-03-01T03:05:15;100958.22;;;13.22;65.72
6524;BME280;3295;38.928;-77.052;2023-03-01T03:07:46;100966.88;;;13.26;62.50
6524;BME280;3295;38.928;-77.052;2023-03-01T03:10:15;100968.47;;;13.22;64.25
6524;BME280;3295;38.928;-77.052;2023-03-01T03:12:49;100968.91;;;13.13;64.06
6524;BME280;3295;38.928;-77.052;2023-03-01T03:15:22;100964.31;;;13.05;64.79
6524;BME280;3295;38.928;-77.052;2023-03-01T03:17:51;100962.47;;;13.02;65.98
6524;BME280;3295;38.928;-77.052;2023-03-01T03:20:21;100955.81;;;13.06;65.54
6524;BME280;3295;38.928;-77.052;2023-03-01T03:22:52;100961.47;;;12.99;63.85
6524;BME280;3295;38.928;-77.052;2023-03-01T03:25:21;100958.81;;;12.96;64.53
6524;BME280;3295;38.928;-77.052;2023-03-01T03:27:50;100967.97;;;12.91;62.10
6524;BME280;3295;38.928;-77.052;2023-03-01T03:30:28;100969.78;;;12.93;60.07
6524;BME280;3295;38.928;-77.052;2023-03-01T03:33:06;100981.66;;;12.91;58.66
6524;BME280;3295;38.928;-77.052;2023-03-01T03:35:39;100974.97;;;12.95;58.94
6524;BME280;3295;38.928;-77.052;2023-03-01T03:38:09;100981.22;;;13.01;59.32
6524;BME280;3295;38.928;-77.052;2023-03-01T03:40:43;100989.91;;;13.05;60.93
6524;BME280;3295;38.928;-77.052;2023-03-01T03:43:13;100999.88;;;12.99;62.96
6524;BME280;3295;38.928;-77.052;2023-03-01T03:45:43;101003.50;;;12.83;65.68
6524;BME280;3295;38.928;-77.052;2023-03-01T03:48:12;100996.41;;;12.58;67.76
6524;BME280;3295;38.928;-77.052;2023-03-01T03:50:40;100994.00;;;12.23;73.05
6524;BME280;3295;38.928;-77.052;2023-03-01T03:53:10;101005.00;;;12.02;76.62
6524;BME280;3295;38.928;-77.052;2023-03-01T03:55:38;101000.09;;;11.89;77.25
6524;BME280;3295;38.928;-77.052;2023-03-01T03:58:08;100997.28;;;11.83;79.25
6524;BME280;3295;38.928;-77.052;2023-03-01T04:00:37;100998.66;;;11.94;78.93
6524;BME280;3295;38.928;-77.052;2023-03-01T04:03:08;101008.22;;;11.98;76.64
6524;BME280;3295;38.928;-77.052;2023-03-01T04:05:36;101005.66;;;11.98;75.02
6524;BME280;3295;38.928;-77.052;2023-03-01T04:08:04;101003.63;;;11.91;73.79
6524;BME280;3295;38.928;-77.052;2023-03-01T04:10:34;101000.00;;;11.86;74.56
6524;BME280;3295;38.928;-77.052;2023-03-01T04:13:03;100997.78;;;11.76;76.14
6524;BME280;3295;38.928;-77.052;2023-03-01T04:15:31;101003.94;;;11.80;74.50
6524;BME280;3295;38.928;-77.052;2023-03-01T04:18:00;101002.91;;;11.76;75.55
6524;BME280;3295;38.928;-77.052;2023-03-01T04:20:32;101000.53;;;11.63;75.29
6524;BME280;3295;38.928;-77.052;2023-03-01T04:23:03;101009.31;;;11.32;79.56
6524;BME280;3295;38.928;-77.052;2023-03-01T04:25:38;101002.56;;;11.17;80.57
6524;BME280;3295;38.928;-77.052;2023-03-01T04:28:06;101006.94;;;11.19;81.13
6524;BME280;3295;38.928;-77.052;2023-03-01T04:30:35;101010.28;;;11.18;83.13
6524;BME280;3295;38.928;-77.052;2023-03-01T04:33:04;101012.25;;;11.06;83.68
6524;BME280;3295;38.928;-77.052;2023-03-01T04:35:35;101019.41;;;10.97;85.49
6524;BME280;3295;38.928;-77.052;2023-03-01T04:38:03;101017.19;;;10.87;85.59
6524;BME280;3295;38.928;-77.052;2023-03-01T04:40:31;101017.13;;;10.85;84.65
6524;BME280;3295;38.928;-77.052;2023-03-01T04:42:59;101022.47;;;10.90;85.19
6524;BME280;3295;38.928;-77.052;2023-03-01T04:45:28;101019.41;;;10.97;83.63
6524;BME280;3295;38.928;-77.052;2023-03-01T04:47:56;101014.63;;;11.03;82.63
6524;BME280;3295;38.928;-77.052;2023-03-01T04:50:24;101021.94;;;11.13;79.48
6524;BME280;3295;38.928;-77.052;2023-03-01T04:52:54;101020.19;;;11.12;79.59
6524;BME280;3295;38.928;-77.052;2023-03-01T04:55:25;101022.13;;;11.00;82.63
6524;BME280;3295;38.928;-77.052;2023-03-01T04:57:53;101017.47;;;10.75;86.24
6524;BME280;3295;38.928;-77.052;2023-03-01T05:00:22;101014.03;;;10.58;86.31
6524;BME280;3295;38.928;-77.052;2023-03-01T05:02:52;101011.97;;;10.35;90.50
6524;BME280;3295;38.928;-77.052;2023-03-01T05:05:28;101014.16;;;10.29;92.81
6524;BME280;3295;38.928;-77.052;2023-03-01T05:07:59;101001.63;;;10.48;91.25
6524;BME280;3295;38.928;-77.052;2023-03-01T05:10:29;101014.38;;;10.48;89.76
6524;BME280;3295;38.928;-77.052;2023-03-01T05:12:57;101006.44;;;10.27;90.44
6524;BME280;3295;38.928;-77.052;2023-03-01T05:15:26;100997.16;;;10.13;91.49
6524;BME280;3295;38.928;-77.052;2023-03-01T05:17:54;100999.13;;;10.03;94.12
6524;BME280;3295;38.928;-77.052;2023-03-01T05:20:24;100997.19;;;9.98;95.32
6524;BME280;3295;38.928;-77.052;2023-03-01T05:22:54;100992.31;;;9.87;97.31
6524;BME280;3295;38.928;-77.052;2023-03-01T05:25:24;100986.34;;;9.86;97.49
6524;BME280;3295;38.928;-77.052;2023-03-01T05:27:51;100972.66;;;9.84;97.76
6524;BME280;3295;38.928;-77.052;2023-03-01T05:30:20;100970.94;;;9.83;99.38
6524;BME280;3295;38.928;-77.052;2023-03-01T05:32:50;100980.78;;;9.77;100.00
6524;BME280;3295;38.928;-77.052;2023-03-01T05:35:21;100977.09;;;9.72;100.00
6524;BME280;3295;38.928;-77.052;2023-03-01T05:37:50;100982.75;;;9.52;100.00
6524;BME280;3295;38.928;-77.052;2023-03-01T05:40:20;100989.06;;;9.58;100.00
6524;BME280;3295;38.928;-77.052;2023-03-01T05:42:51;101002.75;;;9.60;100.00
6524;BME280;3295;38.928;-77.052;2023-03-01T05:45:20;101005.97;;;9.73;100.00
6524;BME280;3295;38.928;-77.052;2023-03-01T05:47:49;101012.91;;;9.75;100.00
6524;BME280;3295;38.928;-77.052;2023-03-01T05:50:19;101020.13;;;9.82;100.00
6524;BME280;3295;38.928;-77.052;2023-03-01T05:52:48;101024.72;;;9.89;100.00
6524;BME280;3295;38.928;-77.052;2023-03-01T05:55:17;101021.09;;;10.01;100.00
6524;BME280;3295;38.928;-77.052;2023-03-01T05:57:46;101029.88;;;10.06;100.00
6524;BME280;3295;38.928;-77.052;2023-03-01T06:00:17;101024.97;;;10.09;100.00
6524;BME280;3295;38.928;-77.052;2023-03-01T06:02:46;101024.06;;;10.23;100.00
6524;BME280;3295;38.928;-77.052;2023-03-01T06:05:14;101023.13;;;10.37;100.00
6524;BME280;3295;38.928;-77.052;2023-03-01T06:07:42;101023.13;;;10.37;100.00
6524;BME280;3295;38.928;-77.052;2023-03-01T06:10:11;101020.78;;;10.42;100.00
6524;BME280;3295;38.928;-77.052;2023-03-01T06:12:40;101024.72;;;10.51;100.00
6524;BME280;3295;38.928;-77.052;2023-03-01T06:15:10;101026.88;;;10.60;100.00
6524;BME280;3295;38.928;-77.052;2023-03-01T06:17:41;101013.22;;;10.43;100.00
6524;BME280;3295;38.928;-77.052;2023-03-01T06:20:12;101017.88;;;10.50;100.00
6524;BME280;3295;38.928;-77.052;2023-03-01T06:22:40;101020.09;;;10.60;100.00
6524;BME280;3295;38.928;-77.052;2023-03-01T06:25:09;101029.66;;;10.64;100.00
6524;BME280;3295;38.928;-77.052;2023-03-01T06:27:37;101025.53;;;10.50;100.00
6524;BME280;3295;38.928;-77.052;2023-03-01T06:30:05;101029.75;;;10.50;100.00
6524;BME280;3295;38.928;-77.052;2023-03-01T06:32:34;101037.00;;;10.58;100.00
6524;BME280;3295;38.928;-77.052;2023-03-01T06:35:03;101038.50;;;10.55;100.00
6524;BME280;3295;38.928;-77.052;2023-03-01T06:37:31;101033.31;;;10.37;100.00
6524;BME280;3295;38.928;-77.052;2023-03-01T06:39:59;101030.50;;;10.32;100.00
6524;BME280;3295;38.928;-77.052;2023-03-01T06:42:30;101029.47;;;10.29;100.00
6524;BME280;3295;38.928;-77.052;2023-03-01T06:44:58;101031.16;;;10.14;100.00
6524;BME280;3295;38.928;-77.052;2023-03-01T06:47:26;101016.53;;;10.10;100.00
6524;BME280;3295;38.928;-77.052;2023-03-01T06:49:54;101029.78;;;10.04;100.00
6524;BME280;3295;38.928;-77.052;2023-03-01T06:52:23;101029.22;;;9.93;100.00
6524;BME280;3295;38.928;-77.052;2023-03-01T06:54:51;101023.59;;;9.84;100.00
6524;BME280;3295;38.928;-77.052;2023-03-01T06:57:19;101026.13;;;9.53;100.00
6524;BME280;3295;38.928;-77.052;2023-03-01T06:59:46;101023.22;;;9.47;100.00
6524;BME280;3295;38.928;-77.052;2023-03-01T07:02:15;101022.63;;;9.37;100.00
6524;BME280;3295;38.928;-77.052;2023-03-01T07:04:43;101015.50;;;9.16;100.00
6524;BME280;3295;38.928;-77.052;2023-03-01T07:07:11;101024.56;;;9.26;100.00
6524;BME280;3295;38.928;-77.052;2023-03-01T07:09:40;101037.72;;;9.34;100.00
6524;BME280;3295;38.928;-77.052;2023-03-01T07:12:08;101045.94;;;9.44;100.00
6524;BME280;3295;38.928;-77.052;2023-03-01T07:14:36;101046.69;;;9.56;100.00
6524;BME280;3295;38.928;-77.052;2023-03-01T07:17:04;101062.38;;;9.64;100.00
6524;BME280;3295;38.928;-77.052;2023-03-01T07:19:32;101071.88;;;9.67;100.00
6524;BME280;3295;38.928;-77.052;2023-03-01T07:22:00;101078.81;;;9.69;100.00
6524;BME280;3295;38.928;-77.052;2023-03-01T07:24:28;101076.50;;;9.59;100.00
6524;BME280;3295;38.928;-77.052;2023-03-01T07:26:57;101089.94;;;9.71;100.00
6524;BME280;3295;38.928;-77.052;2023-03-01T07:29:25;101085.47;;;9.82;100.00
6524;BME280;3295;38.928;-77.052;2023-03-01T07:31:54;101082.56;;;9.76;100.00
6524;BME280;3295;38.928;-77.052;2023-03-01T07:34:22;101079.84;;;9.58;100.00
6524;BME280;3295;38.928;-77.052;2023-03-01T07:36:50;101073.53;;;9.51;100.00
6524;BME280;3295;38.928;-77.052;2023-03-01T07:39:18;101077.06;;;9.53;100.00
6524;BME280;3295;38.928;-77.052;2023-03-01T07:41:46;101064.41;;;9.55;100.00
6524;BME280;3295;38.928;-77.052;2023-03-01T07:44:15;101058.44;;;9.54;100.00
6524;BME280;3295;38.928;-77.052;2023-03-01T07:46:43;101048.97;;;9.52;100.00
6524;BME280;3295;38.928;-77.052;2023-03-01T07:49:11;101043.88;;;9.37;100.00
6524;BME280;3295;38.928;-77.052;2023-03-01T07:51:39;101047.91;;;9.34;100.00
6524;BME280;3295;38.928;-77.052;2023-03-01T07:54:08;101069.31;;;9.37;100.00
6524;BME280;3295;38.928;-77.052;2023-03-01T07:56:35;101079.03;;;9.44;100.00
6524;BME280;3295;38.928;-77.052;2023-03-01T07:59:03;101095.75;;;9.54;100.00
6524;BME280;3295;38.928;-77.052;2023-03-01T08:01:32;101104.78;;;9.63;100.00
6524;BME280;3295;38.928;-77.052;2023-03-01T08:04:00;101118.13;;;9.74;100.00
6524;BME280;3295;38.928;-77.052;2023-03-01T08:06:30;101127.72;;;9.78;100.00
6524;BME280;3295;38.928;-77.052;2023-03-01T08:08:58;101131.50;;;9.70;100.00
6524;BME280;3295;38.928;-77.052;2023-03-01T08:11:26;101138.69;;;9.62;100.00
6524;BME280;3295;38.928;-77.052;2023-03-01T08:13:55;101139.56;;;9.63;100.00
6524;BME280;3295;38.928;-77.052;2023-03-01T08:16:23;101135.06;;;9.44;100.00
6524;BME280;3295;38.928;-77.052;2023-03-01T08:18:52;101137.75;;;9.33;100.00
6524;BME280;3295;38.928;-77.052;2023-03-01T08:21:22;101144.09;;;9.24;100.00
6524;BME280;3295;38.928;-77.052;2023-03-01T08:23:50;101154.53;;;9.29;100.00
6524;BME280;3295;38.928;-77.052;2023-03-01T08:26:20;101167.19;;;9.27;100.00
6524;BME280;3295;38.928;-77.052;2023-03-01T08:28:49;101173.41;;;9.33;100.00
6524;BME280;3295;38.928;-77.052;2023-03-01T08:31:19;101175.16;;;9.34;100.00
6524;BME280;3295;38.928;-77.052;2023-03-01T08:33:49;101175.94;;;9.05;100.00
6524;BME280;3295;38.928;-77.052;2023-03-01T08:36:23;101169.25;;;8.92;100.00
6524;BME280;3295;38.928;-77.052;2023-03-01T08:38:51;101166.03;;;8.81;100.00
6524;BME280;3295;38.928;-77.052;2023-03-01T08:41:19;101164.38;;;8.82;100.00
6524;BME280;3295;38.928;-77.052;2023-03-01T08:43:47;101177.09;;;8.82;100.00
6524;BME280;3295;38.928;-77.052;2023-03-01T08:46:16;101178.66;;;8.80;100.00
6524;BME280;3295;38.928;-77.052;2023-03-01T08:48:44;101185.16;;;8.62;100.00
6524;BME280;3295;38.928;-77.052;2023-03-01T08:51:14;101188.69;;;8.50;100.00
6524;BME280;3295;38.928;-77.052;2023-03-01T08:53:44;101191.44;;;8.40;100.00
6524;BME280;3295;38.928;-77.052;2023-03-01T08:56:13;101202.00;;;8.46;100.00
6524;BME280;3295;38.928;-77.052;2023-03-01T08:58:44;101195.53;;;8.51;100.00
6524;BME280;3295;38.928;-77.052;2023-03-01T09:01:14;101196.91;;;8.46;100.00
6524;BME280;3295;38.928;-77.052;2023-03-01T09:03:42;101205.47;;;8.22;100.00
6524;BME280;3295;38.928;-77.052;2023-03-01T09:06:11;101198.13;;;8.13;100.00
6524;BME280;3295;38.928;-77.052;2023-03-01T09:08:44;101206.53;;;8.12;100.00
6524;BME280;3295;38.928;-77.052;2023-03-01T09:11:14;101213.69;;;8.18;100.00
6524;BME280;3295;38.928;-77.052;2023-03-01T09:13:44;101210.94;;;8.28;100.00
6524;BME280;3295;38.928;-77.052;2023-03-01T09:16:13;101220.72;;;8.22;100.00
6524;BME280;3295;38.928;-77.052;2023-03-01T09:18:43;101223.66;;;8.15;100.00
6524;BME280;3295;38.928;-77.052;2023-03-01T09:21:14;101243.75;;;8.12;100.00
6524;BME280;3295;38.928;-77.052;2023-03-01T09:23:47;101240.06;;;8.20;100.00
6524;BME280;3295;38.928;-77.052;2023-03-01T09:26:18;101240.66;;;8.16;100.00
6524;BME280;3295;38.928;-77.052;2023-03-01T09:28:48;101248.75;;;8.10;100.00
6524;BME280;3295;38.928;-77.052;2023-03-01T09:31:19;101248.91;;;7.87;100.00
6524;BME280;3295;38.928;-77.052;2023-03-01T09:33:48;101241.56;;;7.78;100.00
6524;BME280;3295;38.928;-77.052;2023-03-01T09:36:19;101244.28;;;7.81;100.00
6524;BME280;3295;38.928;-77.052;2023-03-01T09:38:52;101250.13;;;7.80;100.00
6524;BME280;3295;38.928;-77.052;2023-03-01T09:41:38;101255.03;;;7.77;100.00
6524;BME280;3295;38.928;-77.052;2023-03-01T09:44:16;101251.50;;;7.75;100.00
6524;BME280;3295;38.928;-77.052;2023-03-01T09:46:47;101247.75;;;7.70;100.00
6524;BME280;3295;38.928;-77.052;2023-03-01T09:49:17;101248.63;;;7.71;100.00
6524;BME280;3295;38.928;-77.052;2023-03-01T09:51:56;101258.13;;;7.73;100.00
6524;BME280;3295;38.928;-77.052;2023-03-01T09:54:26;101256.97;;;7.81;100.00
6524;BME280;3295;38.928;-77.052;2023-03-01T09:57:05;101252.63;;;7.67;100.00
6524;BME280;3295;38.928;-77.052;2023-03-01T09:59:45;101244.78;;;7.51;100.00
6524;BME280;3295;38.928;-77.052;2023-03-01T10:02:26;101249.84;;;7.51;100.00
6524;BME280;3295;38.928;-77.052;2023-03-01T10:05:04;101258.47;;;7.41;100.00
6524;BME280;3295;38.928;-77.052;2023-03-01T10:07:39;101248.53;;;7.20;100.00
6524;BME280;3295;38.928;-77.052;2023-03-01T10:10:27;101249.81;;;7.26;100.00
6524;BME280;3295;38.928;-77.052;2023-03-01T10:12:56;101248.59;;;7.33;100.00
6524;BME280;3295;38.928;-77.052;2023-03-01T10:15:38;101247.28;;;7.26;100.00
6524;BME280;3295;38.928;-77.052;2023-03-01T10:18:12;101240.88;;;7.31;100.00
6524;BME280;3295;38.928;-77.052;2023-03-01T10:20:46;101244.84;;;7.28;100.00
6524;BME280;3295;38.928;-77.052;2023-03-01T10:23:16;101232.09;;;7.14;100.00
6524;BME280;3295;38.928;-77.052;2023-03-01T10:25:56;101240.03;;;7.19;100.00
6524;BME280;3295;38.928;-77.052;2023-03-01T10:28:31;101246.22;;;7.23;100.00
6524;BME280;3295;38.928;-77.052;2023-03-01T10:31:04;101247.75;;;7.21;100.00
6524;BME280;3295;38.928;-77.052;2023-03-01T10:33:36;101260.28;;;7.31;100.00
6524;BME280;3295;38.928;-77.052;2023-03-01T10:36:05;101263.59;;;7.30;100.00
6524;BME280;3295;38.928;-77.052;2023-03-01T10:38:48;101260.06;;;7.28;100.00
6524;BME280;3295;38.928;-77.052;2023-03-01T10:41:19;101256.72;;;7.40;100.00
6524;BME280;3295;38.928;-77.052;2023-03-01T10:43:51;101274.69;;;7.43;100.00
6524;BME280;3295;38.928;-77.052;2023-03-01T10:46:24;101274.38;;;7.39;100.00
6524;BME280;3295;38.928;-77.052;2023-03-01T10:49:14;101291.34;;;7.40;100.00
6524;BME280;3295;38.928;-77.052;2023-03-01T10:51:43;101299.34;;;7.33;100.00
6524;BME280;3295;38.928;-77.052;2023-03-01T10:54:20;101303.56;;;7.21;100.00
6524;BME280;3295;38.928;-77.052;2023-03-01T10:56:52;101313.72;;;7.09;100.00
6524;BME280;3295;38.928;-77.052;2023-03-01T10:59:28;101310.41;;;6.98;100.00
6524;BME280;3295;38.928;-77.052;2023-03-01T11:02:12;101317.47;;;6.91;100.00
6524;BME280;3295;38.928;-77.052;2023-03-01T11:04:56;101307.78;;;6.85;100.00
6524;BME280;3295;38.928;-77.052;2023-03-01T11:07:24;101309.66;;;6.76;100.00
6524;BME280;3295;38.928;-77.052;2023-03-01T11:09:52;101310.44;;;6.75;100.00
6524;BME280;3295;38.928;-77.052;2023-03-01T11:12:22;101311.31;;;6.64;100.00
6524;BME280;3295;38.928;-77.052;2023-03-01T11:14:53;101311.53;;;6.55;100.00
6524;BME280;3295;38.928;-77.052;2023-03-01T11:17:25;101308.25;;;6.68;100.00
6524;BME280;3295;38.928;-77.052;2023-03-01T11:20:02;101311.44;;;6.77;100.00
6524;BME280;3295;38.928;-77.052;2023-03-01T11:22:33;101311.53;;;6.67;100.00
6524;BME280;3295;38.928;-77.052;2023-03-01T11:25:02;101312.44;;;6.56;100.00
6524;BME280;3295;38.928;-77.052;2023-03-01T11:27:33;101322.22;;;6.63;100.00
6524;BME280;3295;38.928;-77.052;2023-03-01T11:30:04;101315.72;;;6.66;100.00
6524;BME280;3295;38.928;-77.052;2023-03-01T11:32:39;101319.16;;;6.67;100.00
6524;BME280;3295;38.928;-77.052;2023-03-01T11:35:15;101326.53;;;6.64;100.00
6524;BME280;3295;38.928;-77.052;2023-03-01T11:37:56;101325.53;;;6.73;100.00
6524;BME280;3295;38.928;-77.052;2023-03-01T11:40:31;101341.72;;;6.75;100.00
6524;BME280;3295;38.928;-77.052;2023-03-01T11:43:12;101342.06;;;6.80;100.00
6524;BME280;3295;38.928;-77.052;2023-03-01T11:45:51;101344.38;;;6.77;100.00
6524;BME280;3295;38.928;-77.052;2023-03-01T11:48:31;101339.53;;;6.80;100.00
6524;BME280;3295;38.928;-77.052;2023-03-01T11:51:05;101353.22;;;6.82;100.00
6524;BME280;3295;38.928;-77.052;2023-03-01T11:53:54;101353.63;;;6.76;100.00
6524;BME280;3295;38.928;-77.052;2023-03-01T11:56:31;101354.53;;;6.77;100.00
6524;BME280;3295;38.928;-77.052;2023-03-01T11:59:16;101348.13;;;6.82;100.00
6524;BME280;3295;38.928;-77.052;2023-03-01T12:01:54;101343.84;;;6.81;100.00
6524;BME280;3295;38.928;-77.052;2023-03-01T12:04:53;101346.56;;;6.84;100.00
6524;BME280;3295;38.928;-77.052;2023-03-01T12:07:33;101346.78;;;6.87;100.00
6524;BME280;3295;38.928;-77.052;2023-03-01T12:10:18;101342.38;;;6.85;100.00
6524;BME280;3295;38.928;-77.052;2023-03-01T12:12:57;101345.81;;;6.85;100.00
6524;BME280;3295;38.928;-77.052;2023-03-01T12:15:58;101341.84;;;6.89;100.00
6524;BME280;3295;38.928;-77.052;2023-03-01T12:18:54;101339.88;;;6.96;100.00
6524;BME280;3295;38.928;-77.052;2023-03-01T12:21:31;101344.72;;;7.05;100.00
6524;BME280;3295;38.928;-77.052;2023-03-01T12:24:23;101350.13;;;7.09;100.00
6524;BME280;3295;38.928;-77.052;2023-03-01T12:27:05;101355.59;;;7.16;100.00
6524;BME280;3295;38.928;-77.052;2023-03-01T12:29:41;101355.41;;;7.24;100.00
6524;BME280;3295;38.928;-77.052;2023-03-01T12:32:22;101359.47;;;7.34;100.00
6524;BME280;3295;38.928;-77.052;2023-03-01T12:35:05;101363.28;;;7.40;100.00
6524;BME280;3295;38.928;-77.052;2023-03-01T12:37:49;101371.69;;;7.51;100.00
6524;BME280;3295;38.928;-77.052;2023-03-01T12:40:32;101375.84;;;7.62;100.00
6524;BME280;3295;38.928;-77.052;2023-03-01T12:43:13;101375.69;;;7.72;100.00
6524;BME280;3295;38.928;-77.052;2023-03-01T12:46:14;101378.84;;;7.81;100.00
6524;BME280;3295;38.928;-77.052;2023-03-01T12:48:59;101370.69;;;7.85;100.00
6524;BME280;3295;38.928;-77.052;2023-03-01T12:51:31;101375.97;;;7.89;100.00
6524;BME280;3295;38.928;-77.052;2023-03-01T12:54:07;101381.06;;;7.89;100.00
6524;BME280;3295;38.928;-77.052;2023-03-01T12:56:39;101384.22;;;7.98;100.00
6524;BME280;3295;38.928;-77.052;2023-03-01T12:59:14;101382.81;;;7.90;100.00
6524;BME280;3295;38.928;-77.052;2023-03-01T13:01:48;101383.59;;;8.13;100.00
6524;BME280;3295;38.928;-77.052;2023-03-01T13:04:29;101385.19;;;8.25;100.00
6524;BME280;3295;38.928;-77.052;2023-03-01T13:07:06;101386.25;;;8.40;100.00
6524;BME280;3295;38.928;-77.052;2023-03-01T13:09:43;101387.03;;;8.39;100.00
6524;BME280;3295;38.928;-77.052;2023-03-01T13:15:33;101386.00;;;8.62;100.00
6524;BME280;3295;38.928;-77.052;2023-03-01T13:18:04;101390.94;;;8.85;100.00
6524;BME280;3295;38.928;-77.052;2023-03-01T13:20:45;101389.88;;;9.08;100.00